sensor_id;sensor_type;location;lat;lon;timestamp;P1;durP1;ratioP1;P2;durP2;ratioP2
46290;SDS011;32023;44.444;26.006;2022-11-15T00:01:40;30.88;;;16.88;;
46290;SDS011;32023;44.444;26.006;2022-11-15T00:04:07;34.13;;;17.65;;
46290;SDS011;32023;44.444;26.006;2022-11-15T00:06:35;34.28;;;17.15;;
46290;SDS011;32023;44.444;26.006;2022-11-15T00:09:02;33.42;;;17.50;;
46290;SDS011;32023;44.444;26.006;2022-11-15T00:11:28;39.92;;;18.25;;
46290;SDS011;32023;44.444;26.006;2022-11-15T00:13:55;36.78;;;16.45;;
46290;SDS011;32023;44.444;26.006;2022-11-15T00:16:22;32.25;;;16.52;;
46290;SDS011;32023;44.444;26.006;2022-11-15T00:18:49;34.00;;;16.20;;
46290;SDS011;32023;44.444;26.006;2022-11-15T00:21:16;33.65;;;17.67;;
46290;SDS011;32023;44.444;26.006;2022-11-15T00:23:43;37.47;;;17.40;;
46290;SDS011;32023;44.444;26.006;2022-11-15T00:26:11;31.80;;;16.02;;
46290;SDS011;32023;44.444;26.006;2022-11-15T00:28:38;29.40;;;16.02;;
46290;SDS011;32023;44.444;26.006;2022-11-15T00:31:06;32.28;;;16.17;;
46290;SDS011;32023;44.444;26.006;2022-11-15T00:33:36;31.67;;;16.50;;
46290;SDS011;32023;44.444;26.006;2022-11-15T00:36:03;33.28;;;17.27;;
46290;SDS011;32023;44.444;26.006;2022-11-15T00:38:35;31.67;;;16.20;;
46290;SDS011;32023;44.444;26.006;2022-11-15T00:41:03;33.08;;;15.52;;
46290;SDS011;32023;44.444;26.006;2022-11-15T00:43:31;30.88;;;16.10;;
46290;SDS011;32023;44.444;26.006;2022-11-15T00:45:58;29.27;;;15.18;;
46290;SDS011;32023;44.444;26.006;2022-11-15T00:48:25;27.95;;;15.75;;
46290;SDS011;32023;44.444;26.006;2022-11-15T00:51:12;27.35;;;14.98;;
46290;SDS011;32023;44.444;26.006;2022-11-15T00:53:40;28.90;;;15.63;;
46290;SDS011;32023;44.444;26.006;2022-11-15T00:56:09;30.75;;;16.60;;
46290;SDS011;32023;44.444;26.006;2022-11-15T00:58:37;31.48;;;17.20;;
46290;SDS011;32023;44.444;26.006;2022-11-15T01:01:08;28.60;;;15.18;;
46290;SDS011;32023;44.444;26.006;2022-11-15T01:03:36;34.72;;;16.52;;
46290;SDS011;32023;44.444;26.006;2022-11-15T01:06:04;30.73;;;15.50;;
46290;SDS011;32023;44.444;26.006;2022-11-15T01:08:31;29.23;;;16.05;;
46290;SDS011;32023;44.444;26.006;2022-11-15T01:11:02;30.60;;;16.27;;
46290;SDS011;32023;44.444;26.006;2022-11-15T01:13:30;26.52;;;14.57;;
46290;SDS011;32023;44.444;26.006;2022-11-15T01:15:57;27.73;;;15.52;;
46290;SDS011;32023;44.444;26.006;2022-11-15T01:18:23;32.15;;;15.77;;
46290;SDS011;32023;44.444;26.006;2022-11-15T01:20:49;30.92;;;15.63;;
46290;SDS011;32023;44.444;26.006;2022-11-15T01:23:16;30.50;;;15.95;;
46290;SDS011;32023;44.444;26.006;2022-11-15T01:25:42;28.63;;;16.42;;
46290;SDS011;32023;44.444;26.006;2022-11-15T01:28:18;32.30;;;18.67;;
46290;SDS011;32023;44.444;26.006;2022-11-15T01:30:50;31.65;;;17.75;;
46290;SDS011;32023;44.444;26.006;2022-11-15T01:33:19;29.15;;;17.70;;
46290;SDS011;32023;44.444;26.006;2022-11-15T01:35:46;34.33;;;19.52;;
46290;SDS011;32023;44.444;26.006;2022-11-15T01:38:12;35.47;;;19.63;;
46290;SDS011;32023;44.444;26.006;2022-11-15T01:40:41;32.22;;;19.92;;
46290;SDS011;32023;44.444;26.006;2022-11-15T01:43:21;34.80;;;20.10;;
46290;SDS011;32023;44.444;26.006;2022-11-15T01:45:50;35.83;;;19.58;;
46290;SDS011;32023;44.444;26.006;2022-11-15T01:48:22;37.45;;;20.30;;
46290;SDS011;32023;44.444;26.006;2022-11-15T01:50:51;32.53;;;20.05;;
46290;SDS011;32023;44.444;26.006;2022-11-15T01:53:17;33.35;;;19.88;;
46290;SDS011;32023;44.444;26.006;2022-11-15T01:55:47;36.72;;;19.48;;
46290;SDS011;32023;44.444;26.006;2022-11-15T01:58:13;29.08;;;18.52;;
46290;SDS011;32023;44.444;26.006;2022-11-15T02:00:40;35.13;;;19.83;;
46290;SDS011;32023;44.444;26.006;2022-11-15T02:03:07;38.10;;;18.73;;
46290;SDS011;32023;44.444;26.006;2022-11-15T02:05:33;31.48;;;18.98;;
46290;SDS011;32023;44.444;26.006;2022-11-15T02:08:02;34.60;;;19.80;;
46290;SDS011;32023;44.444;26.006;2022-11-15T02:10:28;38.42;;;18.90;;
46290;SDS011;32023;44.444;26.006;2022-11-15T02:12:55;36.65;;;20.20;;
46290;SDS011;32023;44.444;26.006;2022-11-15T02:15:24;40.80;;;19.48;;
46290;SDS011;32023;44.444;26.006;2022-11-15T02:18:11;31.38;;;18.77;;
46290;SDS011;32023;44.444;26.006;2022-11-15T02:26:59;34.97;;;18.85;;
46290;SDS011;32023;44.444;26.006;2022-11-15T02:30:02;37.42;;;18.77;;
46290;SDS011;32023;44.444;26.006;2022-11-15T02:32:40;30.88;;;18.17;;
46290;SDS011;32023;44.444;26.006;2022-11-15T02:42:53;35.25;;;18.45;;
46290;SDS011;32023;44.444;26.006;2022-11-15T02:45:51;33.53;;;18.38;;
46290;SDS011;32023;44.444;26.006;2022-11-15T02:48:39;33.03;;;18.60;;
46290;SDS011;32023;44.444;26.006;2022-11-15T02:51:07;40.47;;;18.98;;
46290;SDS011;32023;44.444;26.006;2022-11-15T02:53:34;35.67;;;18.15;;
46290;SDS011;32023;44.444;26.006;2022-11-15T02:56:03;39.40;;;18.38;;
46290;SDS011;32023;44.444;26.006;2022-11-15T03:04:45;40.55;;;19.42;;
46290;SDS011;32023;44.444;26.006;2022-11-15T03:10:06;39.30;;;19.50;;
46290;SDS011;32023;44.444;26.006;2022-11-15T03:12:57;34.80;;;18.55;;
46290;SDS011;32023;44.444;26.006;2022-11-15T03:15:38;39.33;;;18.25;;
46290;SDS011;32023;44.444;26.006;2022-11-15T03:18:19;37.20;;;18.98;;
46290;SDS011;32023;44.444;26.006;2022-11-15T03:20:57;35.90;;;18.40;;
46290;SDS011;32023;44.444;26.006;2022-11-15T03:23:30;39.50;;;19.20;;
46290;SDS011;32023;44.444;26.006;2022-11-15T03:25:58;38.30;;;19.20;;
46290;SDS011;32023;44.444;26.006;2022-11-15T03:28:32;35.67;;;18.23;;
46290;SDS011;32023;44.444;26.006;2022-11-15T03:31:10;41.00;;;18.63;;
46290;SDS011;32023;44.444;26.006;2022-11-15T03:36:30;35.92;;;18.27;;
46290;SDS011;32023;44.444;26.006;2022-11-15T03:38:59;35.30;;;18.85;;
46290;SDS011;32023;44.444;26.006;2022-11-15T03:44:21;37.53;;;20.42;;
46290;SDS011;32023;44.444;26.006;2022-11-15T03:47:07;38.85;;;19.45;;
46290;SDS011;32023;44.444;26.006;2022-11-15T03:49:43;39.85;;;19.45;;
46290;SDS011;32023;44.444;26.006;2022-11-15T03:52:16;35.45;;;18.38;;
46290;SDS011;32023;44.444;26.006;2022-11-15T03:55:02;36.53;;;18.17;;
46290;SDS011;32023;44.444;26.006;2022-11-15T04:00:23;43.55;;;19.58;;
46290;SDS011;32023;44.444;26.006;2022-11-15T04:02:50;40.15;;;20.35;;
46290;SDS011;32023;44.444;26.006;2022-11-15T04:05:16;41.22;;;20.90;;
46290;SDS011;32023;44.444;26.006;2022-11-15T04:07:46;38.13;;;18.73;;
46290;SDS011;32023;44.444;26.006;2022-11-15T04:10:19;39.58;;;18.95;;
46290;SDS011;32023;44.444;26.006;2022-11-15T04:12:46;40.40;;;20.17;;
46290;SDS011;32023;44.444;26.006;2022-11-15T04:15:27;39.00;;;19.42;;
46290;SDS011;32023;44.444;26.006;2022-11-15T04:21:04;40.20;;;19.30;;
46290;SDS011;32023;44.444;26.006;2022-11-15T04:23:49;37.33;;;19.75;;
46290;SDS011;32023;44.444;26.006;2022-11-15T04:26:25;43.00;;;20.60;;
46290;SDS011;32023;44.444;26.006;2022-11-15T04:28:52;37.35;;;18.25;;
46290;SDS011;32023;44.444;26.006;2022-11-15T04:31:36;37.47;;;19.65;;
46290;SDS011;32023;44.444;26.006;2022-11-15T04:34:06;41.90;;;19.27;;
46290;SDS011;32023;44.444;26.006;2022-11-15T04:36:34;34.53;;;19.13;;
46290;SDS011;32023;44.444;26.006;2022-11-15T04:39:28;42.97;;;20.33;;
46290;SDS011;32023;44.444;26.006;2022-11-15T04:41:55;39.30;;;18.88;;
46290;SDS011;32023;44.444;26.006;2022-11-15T04:44:21;36.67;;;18.95;;
46290;SDS011;32023;44.444;26.006;2022-11-15T04:46:47;43.00;;;19.77;;
46290;SDS011;32023;44.444;26.006;2022-11-15T04:49:14;40.55;;;19.42;;
46290;SDS011;32023;44.444;26.006;2022-11-15T04:51:40;43.30;;;20.48;;
46290;SDS011;32023;44.444;26.006;2022-11-15T04:57:42;43.50;;;20.85;;
46290;SDS011;32023;44.444;26.006;2022-11-15T05:00:10;41.97;;;19.77;;
46290;SDS011;32023;44.444;26.006;2022-11-15T05:02:38;43.00;;;20.50;;
46290;SDS011;32023;44.444;26.006;2022-11-15T05:05:23;39.28;;;19.42;;
46290;SDS011;32023;44.444;26.006;2022-11-15T05:07:55;43.03;;;20.95;;
46290;SDS011;32023;44.444;26.006;2022-11-15T05:10:24;39.67;;;20.27;;
46290;SDS011;32023;44.444;26.006;2022-11-15T05:12:51;43.58;;;21.08;;
46290;SDS011;32023;44.444;26.006;2022-11-15T05:15:17;40.55;;;19.60;;
46290;SDS011;32023;44.444;26.006;2022-11-15T05:17:46;40.85;;;20.02;;
46290;SDS011;32023;44.444;26.006;2022-11-15T05:20:13;42.30;;;19.88;;
46290;SDS011;32023;44.444;26.006;2022-11-15T05:22:39;38.15;;;19.30;;
46290;SDS011;32023;44.444;26.006;2022-11-15T05:25:06;42.88;;;21.40;;
46290;SDS011;32023;44.444;26.006;2022-11-15T05:27:34;39.88;;;19.33;;
46290;SDS011;32023;44.444;26.006;2022-11-15T05:30:03;42.08;;;21.02;;
46290;SDS011;32023;44.444;26.006;2022-11-15T05:32:30;37.08;;;19.30;;
46290;SDS011;32023;44.444;26.006;2022-11-15T05:34:57;42.70;;;20.67;;
46290;SDS011;32023;44.444;26.006;2022-11-15T05:37:32;41.72;;;20.20;;
46290;SDS011;32023;44.444;26.006;2022-11-15T05:39:58;46.60;;;21.45;;
46290;SDS011;32023;44.444;26.006;2022-11-15T05:42:25;43.85;;;21.52;;
46290;SDS011;32023;44.444;26.006;2022-11-15T05:44:52;45.13;;;21.90;;
46290;SDS011;32023;44.444;26.006;2022-11-15T05:47:20;40.13;;;20.92;;
46290;SDS011;32023;44.444;26.006;2022-11-15T05:49:52;47.20;;;21.48;;
46290;SDS011;32023;44.444;26.006;2022-11-15T05:52:34;40.13;;;21.33;;
46290;SDS011;32023;44.444;26.006;2022-11-15T05:55:08;52.75;;;23.38;;
46290;SDS011;32023;44.444;26.006;2022-11-15T05:57:38;42.40;;;21.58;;
46290;SDS011;32023;44.444;26.006;2022-11-15T06:00:04;43.63;;;20.65;;
46290;SDS011;32023;44.444;26.006;2022-11-15T06:02:33;38.03;;;21.70;;
46290;SDS011;32023;44.444;26.006;2022-11-15T06:04:59;42.72;;;20.50;;
46290;SDS011;32023;44.444;26.006;2022-11-15T06:07:28;40.20;;;20.67;;
46290;SDS011;32023;44.444;26.006;2022-11-15T06:09:55;40.55;;;20.35;;
46290;SDS011;32023;44.444;26.006;2022-11-15T06:12:24;42.97;;;21.42;;
46290;SDS011;32023;44.444;26.006;2022-11-15T06:14:50;39.40;;;21.30;;
46290;SDS011;32023;44.444;26.006;2022-11-15T06:17:16;44.28;;;20.25;;
46290;SDS011;32023;44.444;26.006;2022-11-15T06:19:43;43.05;;;21.48;;
46290;SDS011;32023;44.444;26.006;2022-11-15T06:22:14;36.83;;;19.90;;
46290;SDS011;32023;44.444;26.006;2022-11-15T06:24:41;42.28;;;21.30;;
46290;SDS011;32023;44.444;26.006;2022-11-15T06:27:23;45.13;;;21.10;;
46290;SDS011;32023;44.444;26.006;2022-11-15T06:29:54;43.08;;;21.23;;
46290;SDS011;32023;44.444;26.006;2022-11-15T06:32:30;43.65;;;22.20;;
46290;SDS011;32023;44.444;26.006;2022-11-15T06:34:57;49.15;;;21.25;;
46290;SDS011;32023;44.444;26.006;2022-11-15T06:37:33;46.08;;;21.95;;
46290;SDS011;32023;44.444;26.006;2022-11-15T06:40:02;40.80;;;20.67;;
46290;SDS011;32023;44.444;26.006;2022-11-15T06:42:31;40.53;;;20.52;;
46290;SDS011;32023;44.444;26.006;2022-11-15T06:50:36;39.65;;;20.45;;
46290;SDS011;32023;44.444;26.006;2022-11-15T06:53:15;39.13;;;21.10;;
46290;SDS011;32023;44.444;26.006;2022-11-15T06:55:47;45.45;;;22.13;;
46290;SDS011;32023;44.444;26.006;2022-11-15T06:58:14;45.97;;;23.88;;
46290;SDS011;32023;44.444;26.006;2022-11-15T07:00:41;45.85;;;23.45;;
46290;SDS011;32023;44.444;26.006;2022-11-15T07:03:12;46.10;;;22.20;;
46290;SDS011;32023;44.444;26.006;2022-11-15T07:06:04;43.03;;;21.73;;
46290;SDS011;32023;44.444;26.006;2022-11-15T07:08:37;43.85;;;21.88;;
46290;SDS011;32023;44.444;26.006;2022-11-15T07:11:07;45.08;;;22.67;;
46290;SDS011;32023;44.444;26.006;2022-11-15T07:13:41;44.75;;;22.00;;
46290;SDS011;32023;44.444;26.006;2022-11-15T07:16:08;40.95;;;22.02;;
46290;SDS011;32023;44.444;26.006;2022-11-15T07:18:39;45.35;;;22.88;;
46290;SDS011;32023;44.444;26.006;2022-11-15T07:21:09;47.17;;;23.33;;
46290;SDS011;32023;44.444;26.006;2022-11-15T07:23:41;47.20;;;21.48;;
46290;SDS011;32023;44.444;26.006;2022-11-15T07:26:22;43.83;;;22.15;;
46290;SDS011;32023;44.444;26.006;2022-11-15T07:29:00;43.75;;;22.08;;
46290;SDS011;32023;44.444;26.006;2022-11-15T07:34:36;43.47;;;21.02;;
46290;SDS011;32023;44.444;26.006;2022-11-15T07:37:06;47.83;;;22.80;;
46290;SDS011;32023;44.444;26.006;2022-11-15T07:39:34;42.95;;;21.98;;
46290;SDS011;32023;44.444;26.006;2022-11-15T07:42:06;45.55;;;22.00;;
46290;SDS011;32023;44.444;26.006;2022-11-15T07:44:53;42.88;;;21.33;;
46290;SDS011;32023;44.444;26.006;2022-11-15T07:50:09;45.58;;;22.30;;
46290;SDS011;32023;44.444;26.006;2022-11-15T07:52:41;46.03;;;23.50;;
46290;SDS011;32023;44.444;26.006;2022-11-15T07:55:23;44.67;;;22.50;;
46290;SDS011;32023;44.444;26.006;2022-11-15T07:57:53;47.10;;;22.92;;
46290;SDS011;32023;44.444;26.006;2022-11-15T08:00:28;48.28;;;23.98;;
46290;SDS011;32023;44.444;26.006;2022-11-15T08:05:34;42.92;;;22.10;;
46290;SDS011;32023;44.444;26.006;2022-11-15T08:08:04;47.90;;;23.00;;
46290;SDS011;32023;44.444;26.006;2022-11-15T08:10:30;50.03;;;23.48;;
46290;SDS011;32023;44.444;26.006;2022-11-15T08:13:02;50.08;;;22.98;;
46290;SDS011;32023;44.444;26.006;2022-11-15T08:15:33;47.65;;;23.27;;
46290;SDS011;32023;44.444;26.006;2022-11-15T08:18:03;40.25;;;22.23;;
46290;SDS011;32023;44.444;26.006;2022-11-15T08:20:35;38.75;;;21.85;;
46290;SDS011;32023;44.444;26.006;2022-11-15T08:23:02;45.13;;;22.13;;
46290;SDS011;32023;44.444;26.006;2022-11-15T08:25:34;40.25;;;22.27;;
46290;SDS011;32023;44.444;26.006;2022-11-15T08:28:06;42.83;;;22.10;;
46290;SDS011;32023;44.444;26.006;2022-11-15T08:30:41;47.35;;;24.40;;
46290;SDS011;32023;44.444;26.006;2022-11-15T08:33:11;42.08;;;21.83;;
46290;SDS011;32023;44.444;26.006;2022-11-15T08:35:50;47.28;;;22.58;;
46290;SDS011;32023;44.444;26.006;2022-11-15T08:38:19;42.05;;;22.25;;
46290;SDS011;32023;44.444;26.006;2022-11-15T08:40:59;40.45;;;20.35;;
46290;SDS011;32023;44.444;26.006;2022-11-15T08:43:31;48.08;;;22.75;;
46290;SDS011;32023;44.444;26.006;2022-11-15T08:45:59;39.75;;;21.58;;
46290;SDS011;32023;44.444;26.006;2022-11-15T08:48:33;44.47;;;23.00;;
46290;SDS011;32023;44.444;26.006;2022-11-15T08:51:00;47.88;;;22.77;;
46290;SDS011;32023;44.444;26.006;2022-11-15T08:53:28;40.88;;;20.67;;
46290;SDS011;32023;44.444;26.006;2022-11-15T08:56:01;44.05;;;20.77;;
46290;SDS011;32023;44.444;26.006;2022-11-15T08:58:52;38.28;;;21.65;;
46290;SDS011;32023;44.444;26.006;2022-11-15T09:06:22;43.00;;;21.52;;
46290;SDS011;32023;44.444;26.006;2022-11-15T09:09:04;41.78;;;21.33;;
46290;SDS011;32023;44.444;26.006;2022-11-15T09:11:31;44.53;;;21.85;;
46290;SDS011;32023;44.444;26.006;2022-11-15T09:14:03;43.65;;;21.50;;
46290;SDS011;32023;44.444;26.006;2022-11-15T09:16:30;43.60;;;22.05;;
46290;SDS011;32023;44.444;26.006;2022-11-15T09:18:57;41.95;;;21.92;;
46290;SDS011;32023;44.444;26.006;2022-11-15T09:21:23;43.08;;;21.08;;
46290;SDS011;32023;44.444;26.006;2022-11-15T09:23:50;48.67;;;23.15;;
46290;SDS011;32023;44.444;26.006;2022-11-15T09:26:35;47.03;;;21.85;;
46290;SDS011;32023;44.444;26.006;2022-11-15T09:45:15;39.08;;;20.23;;
46290;SDS011;32023;44.444;26.006;2022-11-15T09:53:12;40.15;;;19.98;;
46290;SDS011;32023;44.444;26.006;2022-11-15T09:55:59;42.95;;;21.45;;
46290;SDS011;32023;44.444;26.006;2022-11-15T10:04:26;42.63;;;21.65;;
46290;SDS011;32023;44.444;26.006;2022-11-15T10:07:04;40.72;;;20.98;;
46290;SDS011;32023;44.444;26.006;2022-11-15T10:12:27;44.28;;;21.00;;
46290;SDS011;32023;44.444;26.006;2022-11-15T10:15:05;48.38;;;22.85;;
46290;SDS011;32023;44.444;26.006;2022-11-15T10:20:54;44.53;;;21.80;;
46290;SDS011;32023;44.444;26.006;2022-11-15T10:23:30;41.40;;;22.63;;
46290;SDS011;32023;44.444;26.006;2022-11-15T10:25:58;46.40;;;22.88;;
46290;SDS011;32023;44.444;26.006;2022-11-15T10:28:26;44.55;;;22.48;;
46290;SDS011;32023;44.444;26.006;2022-11-15T10:30:57;42.10;;;22.67;;
46290;SDS011;32023;44.444;26.006;2022-11-15T10:36:14;45.65;;;22.98;;
46290;SDS011;32023;44.444;26.006;2022-11-15T10:38:54;46.70;;;21.50;;
46290;SDS011;32023;44.444;26.006;2022-11-15T10:41:32;43.20;;;21.23;;
46290;SDS011;32023;44.444;26.006;2022-11-15T10:46:39;42.15;;;20.80;;
46290;SDS011;32023;44.444;26.006;2022-11-15T10:49:13;41.92;;;20.70;;
46290;SDS011;32023;44.444;26.006;2022-11-15T10:51:46;40.42;;;21.13;;
46290;SDS011;32023;44.444;26.006;2022-11-15T10:56:51;39.25;;;20.35;;
46290;SDS011;32023;44.444;26.006;2022-11-15T10:59:26;37.45;;;20.00;;
46290;SDS011;32023;44.444;26.006;2022-11-15T11:01:58;42.30;;;20.50;;
46290;SDS011;32023;44.444;26.006;2022-11-15T11:04:25;44.55;;;20.05;;
46290;SDS011;32023;44.444;26.006;2022-11-15T11:06:59;43.30;;;21.05;;
46290;SDS011;32023;44.444;26.006;2022-11-15T11:25:28;38.67;;;19.98;;
46290;SDS011;32023;44.444;26.006;2022-11-15T11:27:57;36.80;;;19.05;;
46290;SDS011;32023;44.444;26.006;2022-11-15T11:30:33;47.75;;;20.40;;
46290;SDS011;32023;44.444;26.006;2022-11-15T11:33:07;36.08;;;18.88;;
46290;SDS011;32023;44.444;26.006;2022-11-15T11:39:33;38.65;;;20.02;;
46290;SDS011;32023;44.444;26.006;2022-11-15T11:48:01;38.92;;;19.48;;
46290;SDS011;32023;44.444;26.006;2022-11-15T11:56:44;48.33;;;21.55;;
46290;SDS011;32023;44.444;26.006;2022-11-15T12:11:12;41.97;;;20.25;;
46290;SDS011;32023;44.444;26.006;2022-11-15T12:13:59;34.63;;;17.98;;
46290;SDS011;32023;44.444;26.006;2022-11-15T12:16:51;44.10;;;20.17;;
46290;SDS011;32023;44.444;26.006;2022-11-15T12:22:20;40.00;;;19.55;;
46290;SDS011;32023;44.444;26.006;2022-11-15T12:25:05;40.28;;;20.10;;
46290;SDS011;32023;44.444;26.006;2022-11-15T12:30:56;39.30;;;18.08;;
46290;SDS011;32023;44.444;26.006;2022-11-15T12:45:22;43.90;;;18.70;;
46290;SDS011;32023;44.444;26.006;2022-11-15T12:47:25;41.90;;;19.90;;
46290;SDS011;32023;44.444;26.006;2022-11-15T12:49:52;44.17;;;19.45;;
46290;SDS011;32023;44.444;26.006;2022-11-15T12:52:19;45.67;;;20.85;;
46290;SDS011;32023;44.444;26.006;2022-11-15T12:54:55;47.10;;;21.98;;
46290;SDS011;32023;44.444;26.006;2022-11-15T12:57:31;45.03;;;19.67;;
46290;SDS011;32023;44.444;26.006;2022-11-15T13:03:16;41.25;;;19.52;;
46290;SDS011;32023;44.444;26.006;2022-11-15T13:05:55;39.58;;;18.40;;
46290;SDS011;32023;44.444;26.006;2022-11-15T13:17:22;40.70;;;19.08;;
46290;SDS011;32023;44.444;26.006;2022-11-15T13:20:48;45.42;;;20.73;;
46290;SDS011;32023;44.444;26.006;2022-11-15T13:23:07;42.92;;;19.50;;
46290;SDS011;32023;44.444;26.006;2022-11-15T13:28:43;42.03;;;18.45;;
46290;SDS011;32023;44.444;26.006;2022-11-15T13:39:37;39.03;;;18.30;;
46290;SDS011;32023;44.444;26.006;2022-11-15T13:42:04;41.03;;;18.27;;
46290;SDS011;32023;44.444;26.006;2022-11-15T13:44:39;45.78;;;19.65;;
46290;SDS011;32023;44.444;26.006;2022-11-15T13:47:19;41.75;;;18.80;;
46290;SDS011;32023;44.444;26.006;2022-11-15T13:49:59;41.00;;;19.27;;
46290;SDS011;32023;44.444;26.006;2022-11-15T13:52:33;46.08;;;19.38;;
46290;SDS011;32023;44.444;26.006;2022-11-15T13:55:14;40.20;;;18.95;;
46290;SDS011;32023;44.444;26.006;2022-11-15T13:57:59;39.08;;;18.48;;
46290;SDS011;32023;44.444;26.006;2022-11-15T14:00:41;42.88;;;19.67;;
46290;SDS011;32023;44.444;26.006;2022-11-15T14:06:06;41.45;;;19.20;;
46290;SDS011;32023;44.444;26.006;2022-11-15T14:08:59;44.65;;;19.33;;
46290;SDS011;32023;44.444;26.006;2022-11-15T14:11:32;41.00;;;19.25;;
46290;SDS011;32023;44.444;26.006;2022-11-15T14:16:42;40.17;;;18.45;;
46290;SDS011;32023;44.444;26.006;2022-11-15T14:19:35;42.38;;;18.05;;
46290;SDS011;32023;44.444;26.006;2022-11-15T14:22:10;42.40;;;18.63;;
46290;SDS011;32023;44.444;26.006;2022-11-15T14:24:45;43.33;;;19.00;;
46290;SDS011;32023;44.444;26.006;2022-11-15T14:27:38;39.70;;;19.55;;
46290;SDS011;32023;44.444;26.006;2022-11-15T14:30:43;39.40;;;18.95;;
46290;SDS011;32023;44.444;26.006;2022-11-15T14:36:29;43.80;;;19.95;;
46290;SDS011;32023;44.444;26.006;2022-11-15T14:39:02;42.78;;;18.85;;
46290;SDS011;32023;44.444;26.006;2022-11-15T14:41:46;42.75;;;19.58;;
46290;SDS011;32023;44.444;26.006;2022-11-15T14:44:24;41.22;;;19.58;;
46290;SDS011;32023;44.444;26.006;2022-11-15T14:46:54;42.95;;;20.15;;
46290;SDS011;32023;44.444;26.006;2022-11-15T14:49:27;40.90;;;19.13;;
46290;SDS011;32023;44.444;26.006;2022-11-15T14:52:27;45.15;;;19.55;;
46290;SDS011;32023;44.444;26.006;2022-11-15T14:55:23;40.92;;;19.38;;
46290;SDS011;32023;44.444;26.006;2022-11-15T14:58:08;42.50;;;19.33;;
46290;SDS011;32023;44.444;26.006;2022-11-15T15:00:41;42.80;;;19.55;;
46290;SDS011;32023;44.444;26.006;2022-11-15T15:03:20;44.53;;;20.15;;
46290;SDS011;32023;44.444;26.006;2022-11-15T15:06:04;40.38;;;17.88;;
46290;SDS011;32023;44.444;26.006;2022-11-15T15:08:36;39.92;;;19.60;;
46290;SDS011;32023;44.444;26.006;2022-11-15T15:11:18;43.08;;;18.40;;
46290;SDS011;32023;44.444;26.006;2022-11-15T15:14:03;37.60;;;17.48;;
46290;SDS011;32023;44.444;26.006;2022-11-15T15:16:29;39.08;;;18.65;;
46290;SDS011;32023;44.444;26.006;2022-11-15T15:18:58;31.75;;;16.83;;
46290;SDS011;32023;44.444;26.006;2022-11-15T15:21:25;36.97;;;18.73;;
46290;SDS011;32023;44.444;26.006;2022-11-15T15:23:58;37.95;;;18.08;;
46290;SDS011;32023;44.444;26.006;2022-11-15T15:26:27;33.95;;;17.10;;
46290;SDS011;32023;44.444;26.006;2022-11-15T15:28:56;37.40;;;19.70;;
46290;SDS011;32023;44.444;26.006;2022-11-15T15:31:37;37.22;;;17.65;;
46290;SDS011;32023;44.444;26.006;2022-11-15T15:34:08;40.70;;;17.70;;
46290;SDS011;32023;44.444;26.006;2022-11-15T15:36:37;40.05;;;19.17;;
46290;SDS011;32023;44.444;26.006;2022-11-15T15:39:31;38.00;;;18.80;;
46290;SDS011;32023;44.444;26.006;2022-11-15T15:42:18;41.08;;;19.20;;
46290;SDS011;32023;44.444;26.006;2022-11-15T15:44:45;42.92;;;19.05;;
46290;SDS011;32023;44.444;26.006;2022-11-15T15:47:24;42.88;;;20.65;;
46290;SDS011;32023;44.444;26.006;2022-11-15T15:49:53;44.70;;;20.20;;
46290;SDS011;32023;44.444;26.006;2022-11-15T15:52:20;47.55;;;21.00;;
46290;SDS011;32023;44.444;26.006;2022-11-15T15:55:14;43.30;;;21.38;;
46290;SDS011;32023;44.444;26.006;2022-11-15T15:58:15;43.80;;;20.60;;
46290;SDS011;32023;44.444;26.006;2022-11-15T16:01:14;50.33;;;22.33;;
46290;SDS011;32023;44.444;26.006;2022-11-15T16:03:56;45.47;;;21.73;;
46290;SDS011;32023;44.444;26.006;2022-11-15T16:13:03;44.55;;;20.98;;
46290;SDS011;32023;44.444;26.006;2022-11-15T16:15:32;47.35;;;21.83;;
46290;SDS011;32023;44.444;26.006;2022-11-15T16:18:14;48.72;;;22.38;;
46290;SDS011;32023;44.444;26.006;2022-11-15T16:23:42;52.13;;;22.45;;
46290;SDS011;32023;44.444;26.006;2022-11-15T16:26:20;46.75;;;22.63;;
46290;SDS011;32023;44.444;26.006;2022-11-15T16:34:32;47.40;;;22.58;;
46290;SDS011;32023;44.444;26.006;2022-11-15T16:37:22;52.78;;;22.08;;
46290;SDS011;32023;44.444;26.006;2022-11-15T16:46:32;44.17;;;22.30;;
46290;SDS011;32023;44.444;26.006;2022-11-15T16:49:25;56.47;;;24.67;;
46290;SDS011;32023;44.444;26.006;2022-11-15T16:52:12;53.30;;;24.67;;
46290;SDS011;32023;44.444;26.006;2022-11-15T17:04:42;51.30;;;22.83;;
46290;SDS011;32023;44.444;26.006;2022-11-15T17:07:23;47.80;;;23.52;;
46290;SDS011;32023;44.444;26.006;2022-11-15T17:09:55;52.15;;;22.92;;
46290;SDS011;32023;44.444;26.006;2022-11-15T17:12:34;59.53;;;26.50;;
46290;SDS011;32023;44.444;26.006;2022-11-15T17:15:04;58.60;;;27.00;;
46290;SDS011;32023;44.444;26.006;2022-11-15T17:17:44;54.47;;;25.58;;
46290;SDS011;32023;44.444;26.006;2022-11-15T17:20:28;53.53;;;24.95;;
46290;SDS011;32023;44.444;26.006;2022-11-15T17:22:55;53.25;;;24.23;;
46290;SDS011;32023;44.444;26.006;2022-11-15T17:25:31;49.95;;;24.50;;
46290;SDS011;32023;44.444;26.006;2022-11-15T17:28:00;51.30;;;25.15;;
46290;SDS011;32023;44.444;26.006;2022-11-15T17:30:30;53.67;;;24.80;;
46290;SDS011;32023;44.444;26.006;2022-11-15T17:32:59;50.30;;;24.35;;
46290;SDS011;32023;44.444;26.006;2022-11-15T17:35:29;55.20;;;25.40;;
46290;SDS011;32023;44.444;26.006;2022-11-15T17:37:59;53.75;;;24.10;;
46290;SDS011;32023;44.444;26.006;2022-11-15T17:40:32;50.83;;;25.17;;
46290;SDS011;32023;44.444;26.006;2022-11-15T17:42:58;55.78;;;26.08;;
46290;SDS011;32023;44.444;26.006;2022-11-15T17:45:25;52.50;;;25.40;;
46290;SDS011;32023;44.444;26.006;2022-11-15T17:47:51;59.28;;;26.08;;
46290;SDS011;32023;44.444;26.006;2022-11-15T17:50:18;52.83;;;25.60;;
46290;SDS011;32023;44.444;26.006;2022-11-15T17:52:46;50.60;;;25.08;;
46290;SDS011;32023;44.444;26.006;2022-11-15T17:55:13;57.88;;;27.13;;
46290;SDS011;32023;44.444;26.006;2022-11-15T17:57:39;59.40;;;27.92;;
46290;SDS011;32023;44.444;26.006;2022-11-15T18:00:08;61.45;;;27.45;;
46290;SDS011;32023;44.444;26.006;2022-11-15T18:02:53;60.42;;;28.30;;
46290;SDS011;32023;44.444;26.006;2022-11-15T18:05:21;66.35;;;27.90;;
46290;SDS011;32023;44.444;26.006;2022-11-15T18:07:54;63.45;;;27.88;;
46290;SDS011;32023;44.444;26.006;2022-11-15T18:10:36;59.80;;;28.45;;
46290;SDS011;32023;44.444;26.006;2022-11-15T18:13:14;58.92;;;28.40;;
46290;SDS011;32023;44.444;26.006;2022-11-15T18:18:57;63.55;;;29.05;;
46290;SDS011;32023;44.444;26.006;2022-11-15T18:21:40;66.18;;;29.60;;
46290;SDS011;32023;44.444;26.006;2022-11-15T18:24:23;63.72;;;30.13;;
46290;SDS011;32023;44.444;26.006;2022-11-15T18:27:17;63.90;;;27.77;;
46290;SDS011;32023;44.444;26.006;2022-11-15T18:32:15;68.00;;;29.67;;
46290;SDS011;32023;44.444;26.006;2022-11-15T18:34:42;62.88;;;28.63;;